Quick Links (Output Below):   Max & Min Temps   /   Climate Reports   /   Zone Forecasts
River Forecasts   /   Forestry Forecasts   /   Aviation Forecasts   /   Radars   /   Features

Terminal Aerodrome Forecast (Texarkana)

Pick a Site:
Arkadelphia | El Dorado | Fayetteville | Fort Smith | Harrison | Highfill | Hot Springs | Jonesboro
Little Rock | Monticello | Mountain Home | Pine Bluff | Texarkana
 Forecast 

KTXK 310756Z 3108/0106 19007KT P6SM BKN010 BKN250
      TEMPO 3108/3112 5SM BR BKN005
     FM311200 16004KT P6SM BKN015
     FM311500 19007KT P6SM SCT030
     FM311800 19009KT P6SM SCT060
     FM010000 17006KT P6SM SCT250=


 Latest METARs (Observations) 
How to Decode METARs
07Z KTXK 310653Z AUTO 18006KT 10SM CLR 24/23 A2996 RMK AO2 SLP140
         T02390228 $
         
06Z KTXK 310553Z AUTO 15004KT 10SM FEW037 23/23 A2997 RMK AO2 SLP141
         T02280228 10278 20228 403220228 50002 $
         
05Z KTXK 310453Z AUTO 00000KT 10SM SCT048 23/22 A2998 RMK AO2 SLP145
         T02280222 $
         
04Z KTXK 310353Z AUTO 12004KT 10SM CLR 23/22 A2997 RMK AO2 SLP145
         T02330222 $
         
03Z KTXK 310253Z AUTO 00000KT 10SM CLR 24/22 A2996 RMK AO2 SLP141
         T02390217 53014 $
         
02Z KTXK 310153Z 12003KT 10SM CLR 24/22 A2994 RMK AO2 SLP135 T02440217
         $
         
01Z KTXK 310053Z 12004KT 10SM CLR 26/21 A2993 RMK AO2 SLP129 T02560211
         $
         
00Z KTXK 302353Z 14006KT 10SM CLR 28/21 A2992 RMK AO2 SLP125 T02780211
         10322 20272 56002 $
         
***** Today's Observations (Above) *****


23Z KTXK 302253Z 12006KT 10SM FEW034 28/21 A2992 RMK AO2 SLP125
         T02830211 $
         
22Z KTXK 302153Z 11005KT 10SM CLR 29/20 A2991 RMK AO2 SLP123 T02940200
         $
         
***** Yesterday's Observations (Above) *****


Back to Main Page
http://www.srh.noaa.gov/lzk/qfcst.php

USA.gov is the U.S. government's official web portal to all federal, state and local government web resources and services.